PWSweather.com
Personal Weather Stations
Station Observations
BREEJEDURP
'sGravenzande, WestlandNL

'sGravenzandeWestlandNL

Lat: 52.00095260000001, Lon: 4.174256600000035

Elevation: 3

Station Type: Davis Vantage Pro2 Plus

www.breejedurp.nl

High Low Average
Temperature 43.9°F6.6°C 37.6°F3.1°C 41.0°F5.0°C
Dew Point 40.9°F4.9°C 34.1°F1.2°C 38.7°F3.7°C
Winds 12.0 mph 19.3 kmh 1.0 mph 1.6 kmh 5.0 mph ESE8.0 kmh ESE
Wind Gusts 17.0 mph27.4 kmh 2.0 mph3.2 kmh 8.0 mph12.9 kmh
Humidity 97% 81% 91%
Pressure 30.31 in1026.4 mb 30.18 in1022.0 mb -
Precipitation 0.00 in0.0 mm - -
Hour Temp Dew Point Humidity Winds Wind Gusts Pressure Precip Precip Rate Daily Precip Total
12:04 AM 41.9°F5.5°C 40.0°F4.4°C 93% 3.0 mph ESE4.8 kmh ESE 6.0 mph9.7 kmh 30.31 in1026.4 mb 0.00 in0.0 mm 0.00 in0.0 mm 0.00 in0.0 mm
12:09 AM 41.9°F5.5°C 40.0°F4.4°C 93% 4.0 mph SE6.4 kmh SE 7.0 mph11.3 kmh 30.31 in1026.4 mb 0.00 in0.0 mm 0.00 in0.0 mm 0.00 in0.0 mm
12:14 AM 41.9°F5.5°C 40.0°F4.4°C 93% 3.0 mph ESE4.8 kmh ESE 4.0 mph6.4 kmh 30.31 in1026.4 mb 0.00 in0.0 mm 0.00 in0.0 mm 0.00 in0.0 mm
12:19 AM 41.9°F5.5°C 40.0°F4.4°C 93% 4.0 mph ESE6.4 kmh ESE 6.0 mph9.7 kmh 30.31 in1026.4 mb 0.00 in0.0 mm 0.00 in0.0 mm 0.00 in0.0 mm
12:24 AM 41.9°F5.5°C 40.0°F4.4°C 93% 3.0 mph ESE4.8 kmh ESE 4.0 mph6.4 kmh 30.31 in1026.4 mb 0.00 in0.0 mm 0.00 in0.0 mm 0.00 in0.0 mm
12:29 AM 41.9°F5.5°C 40.0°F4.4°C 93% 2.0 mph ESE3.2 kmh ESE 3.0 mph4.8 kmh 30.31 in1026.4 mb 0.00 in0.0 mm 0.00 in0.0 mm 0.00 in0.0 mm
12:34 AM 41.9°F5.5°C 40.3°F4.6°C 94% 5.0 mph E8.0 kmh E 7.0 mph11.3 kmh 30.30 in1026.1 mb 0.00 in0.0 mm 0.00 in0.0 mm 0.00 in0.0 mm
12:39 AM 41.9°F5.5°C 40.3°F4.6°C 94% 4.0 mph ESE6.4 kmh ESE 6.0 mph9.7 kmh 30.30 in1026.1 mb 0.00 in0.0 mm 0.00 in0.0 mm 0.00 in0.0 mm
12:44 AM 41.9°F5.5°C 40.3°F4.6°C 94% 3.0 mph ESE4.8 kmh ESE 4.0 mph6.4 kmh 30.30 in1026.1 mb 0.00 in0.0 mm 0.00 in0.0 mm 0.00 in0.0 mm
12:49 AM 41.9°F5.5°C 40.3°F4.6°C 94% 3.0 mph ESE4.8 kmh ESE 7.0 mph11.3 kmh 30.30 in1026.1 mb 0.00 in0.0 mm 0.00 in0.0 mm 0.00 in0.0 mm
12:54 AM 41.9°F5.5°C 40.3°F4.6°C 94% 3.0 mph ESE4.8 kmh ESE 6.0 mph9.7 kmh 30.30 in1026.1 mb 0.00 in0.0 mm 0.00 in0.0 mm 0.00 in0.0 mm
12:59 AM 41.9°F5.5°C 40.3°F4.6°C 94% 5.0 mph ESE8.0 kmh ESE 7.0 mph11.3 kmh 30.30 in1026.1 mb 0.00 in0.0 mm 0.00 in0.0 mm 0.00 in0.0 mm
01:04 AM 41.9°F5.5°C 40.3°F4.6°C 94% 3.0 mph ESE4.8 kmh ESE 5.0 mph8.0 kmh 30.30 in1026.1 mb 0.00 in0.0 mm 0.00 in0.0 mm 0.00 in0.0 mm
01:09 AM 41.9°F5.5°C 40.3°F4.6°C 94% 4.0 mph ESE6.4 kmh ESE 6.0 mph9.7 kmh 30.30 in1026.1 mb 0.00 in0.0 mm 0.00 in0.0 mm 0.00 in0.0 mm
01:14 AM 42.1°F5.6°C 40.5°F4.7°C 94% 3.0 mph ESE4.8 kmh ESE 4.0 mph6.4 kmh 30.30 in1026.1 mb 0.00 in0.0 mm 0.00 in0.0 mm 0.00 in0.0 mm
01:19 AM 42.1°F5.6°C 40.5°F4.7°C 94% 4.0 mph ESE6.4 kmh ESE 6.0 mph9.7 kmh 30.29 in1025.7 mb 0.00 in0.0 mm 0.00 in0.0 mm 0.00 in0.0 mm
01:24 AM 42.1°F5.6°C 40.5°F4.7°C 94% 3.0 mph ESE4.8 kmh ESE 4.0 mph6.4 kmh 30.29 in1025.7 mb 0.00 in0.0 mm 0.00 in0.0 mm 0.00 in0.0 mm
01:29 AM 42.1°F5.6°C 40.5°F4.7°C 94% 2.0 mph ESE3.2 kmh ESE 4.0 mph6.4 kmh 30.29 in1025.7 mb 0.00 in0.0 mm 0.00 in0.0 mm 0.00 in0.0 mm
01:34 AM 42.1°F5.6°C 40.5°F4.7°C 94% 2.0 mph SE3.2 kmh SE 4.0 mph6.4 kmh 30.29 in1025.7 mb 0.00 in0.0 mm 0.00 in0.0 mm 0.00 in0.0 mm
01:39 AM 42.1°F5.6°C 40.5°F4.7°C 94% 3.0 mph ESE4.8 kmh ESE 6.0 mph9.7 kmh 30.29 in1025.7 mb 0.00 in0.0 mm 0.00 in0.0 mm 0.00 in0.0 mm
01:44 AM 42.1°F5.6°C 40.5°F4.7°C 94% 6.0 mph E9.7 kmh E 10.0 mph16.1 kmh 30.29 in1025.7 mb 0.00 in0.0 mm 0.00 in0.0 mm 0.00 in0.0 mm
01:49 AM 42.3°F5.7°C 40.7°F4.8°C 94% 2.0 mph ESE3.2 kmh ESE 4.0 mph6.4 kmh 30.29 in1025.7 mb 0.00 in0.0 mm 0.00 in0.0 mm 0.00 in0.0 mm
01:54 AM 42.3°F5.7°C 40.7°F4.8°C 94% 2.0 mph ESE3.2 kmh ESE 3.0 mph4.8 kmh 30.29 in1025.7 mb 0.00 in0.0 mm 0.00 in0.0 mm 0.00 in0.0 mm
01:59 AM 42.3°F5.7°C 40.7°F4.8°C 94% 3.0 mph ESE4.8 kmh ESE 6.0 mph9.7 kmh 30.29 in1025.7 mb 0.00 in0.0 mm 0.00 in0.0 mm 0.00 in0.0 mm
02:04 AM 42.3°F5.7°C 40.7°F4.8°C 94% 2.0 mph ESE3.2 kmh ESE 3.0 mph4.8 kmh 30.29 in1025.7 mb 0.00 in0.0 mm 0.00 in0.0 mm 0.00 in0.0 mm
02:09 AM 42.3°F5.7°C 40.7°F4.8°C 94% 3.0 mph ESE4.8 kmh ESE 6.0 mph9.7 kmh 30.29 in1025.7 mb 0.00 in0.0 mm 0.00 in0.0 mm 0.00 in0.0 mm
02:14 AM 42.3°F5.7°C 40.7°F4.8°C 94% 4.0 mph ESE6.4 kmh ESE 7.0 mph11.3 kmh 30.28 in1025.4 mb 0.00 in0.0 mm 0.00 in0.0 mm 0.00 in0.0 mm
02:19 AM 42.3°F5.7°C 40.7°F4.8°C 94% 3.0 mph ESE4.8 kmh ESE 6.0 mph9.7 kmh 30.29 in1025.7 mb 0.00 in0.0 mm 0.00 in0.0 mm 0.00 in0.0 mm
02:24 AM 42.3°F5.7°C 40.7°F4.8°C 94% 1.0 mph E1.6 kmh E 4.0 mph6.4 kmh 30.29 in1025.7 mb 0.00 in0.0 mm 0.00 in0.0 mm 0.00 in0.0 mm
02:29 AM 42.3°F5.7°C 40.7°F4.8°C 94% 1.0 mph ESE1.6 kmh ESE 3.0 mph4.8 kmh 30.29 in1025.7 mb 0.00 in0.0 mm 0.00 in0.0 mm 0.00 in0.0 mm
02:34 AM 42.3°F5.7°C 40.7°F4.8°C 94% 2.0 mph SE3.2 kmh SE 4.0 mph6.4 kmh 30.29 in1025.7 mb 0.00 in0.0 mm 0.00 in0.0 mm 0.00 in0.0 mm
02:39 AM 42.3°F5.7°C 40.7°F4.8°C 94% 2.0 mph SSE3.2 kmh SSE 4.0 mph6.4 kmh 30.29 in1025.7 mb 0.00 in0.0 mm 0.00 in0.0 mm 0.00 in0.0 mm
02:44 AM 42.3°F5.7°C 40.7°F4.8°C 94% 3.0 mph ESE4.8 kmh ESE 4.0 mph6.4 kmh 30.29 in1025.7 mb 0.00 in0.0 mm 0.00 in0.0 mm 0.00 in0.0 mm
02:49 AM 42.3°F5.7°C 40.7°F4.8°C 94% 2.0 mph SE3.2 kmh SE 4.0 mph6.4 kmh 30.29 in1025.7 mb 0.00 in0.0 mm 0.00 in0.0 mm 0.00 in0.0 mm
02:54 AM 42.3°F5.7°C 40.7°F4.8°C 94% 4.0 mph SE6.4 kmh SE 6.0 mph9.7 kmh 30.28 in1025.4 mb 0.00 in0.0 mm 0.00 in0.0 mm 0.00 in0.0 mm
02:59 AM 42.3°F5.7°C 40.7°F4.8°C 94% 3.0 mph ESE4.8 kmh ESE 6.0 mph9.7 kmh 30.29 in1025.7 mb 0.00 in0.0 mm 0.00 in0.0 mm 0.00 in0.0 mm
03:04 AM 42.3°F5.7°C 40.7°F4.8°C 94% 3.0 mph ESE4.8 kmh ESE 4.0 mph6.4 kmh 30.29 in1025.7 mb 0.00 in0.0 mm 0.00 in0.0 mm 0.00 in0.0 mm
03:09 AM 42.3°F5.7°C 40.7°F4.8°C 94% 2.0 mph E3.2 kmh E 4.0 mph6.4 kmh 30.29 in1025.7 mb 0.00 in0.0 mm 0.00 in0.0 mm 0.00 in0.0 mm
03:14 AM 42.3°F5.7°C 40.7°F4.8°C 94% 2.0 mph ESE3.2 kmh ESE 4.0 mph6.4 kmh 30.29 in1025.7 mb 0.00 in0.0 mm 0.00 in0.0 mm 0.00 in0.0 mm
03:19 AM 42.3°F5.7°C 40.7°F4.8°C 94% 3.0 mph ESE4.8 kmh ESE 4.0 mph6.4 kmh 30.28 in1025.4 mb 0.00 in0.0 mm 0.00 in0.0 mm 0.00 in0.0 mm
03:24 AM 42.3°F5.7°C 40.7°F4.8°C 94% 5.0 mph ESE8.0 kmh ESE 7.0 mph11.3 kmh 30.28 in1025.4 mb 0.00 in0.0 mm 0.00 in0.0 mm 0.00 in0.0 mm
03:29 AM 42.3°F5.7°C 40.7°F4.8°C 94% 4.0 mph ESE6.4 kmh ESE 7.0 mph11.3 kmh 30.28 in1025.4 mb 0.00 in0.0 mm 0.00 in0.0 mm 0.00 in0.0 mm
03:34 AM 42.3°F5.7°C 40.7°F4.8°C 94% 4.0 mph ESE6.4 kmh ESE 8.0 mph12.9 kmh 30.28 in1025.4 mb 0.00 in0.0 mm 0.00 in0.0 mm 0.00 in0.0 mm
03:39 AM 42.1°F5.6°C 40.5°F4.7°C 94% 2.0 mph SE3.2 kmh SE 6.0 mph9.7 kmh 30.28 in1025.4 mb 0.00 in0.0 mm 0.00 in0.0 mm 0.00 in0.0 mm
03:44 AM 42.1°F5.6°C 40.5°F4.7°C 94% 2.0 mph ESE3.2 kmh ESE 4.0 mph6.4 kmh 30.28 in1025.4 mb 0.00 in0.0 mm 0.00 in0.0 mm 0.00 in0.0 mm
03:49 AM 42.1°F5.6°C 40.5°F4.7°C 94% 3.0 mph E4.8 kmh E 4.0 mph6.4 kmh 30.28 in1025.4 mb 0.00 in0.0 mm 0.00 in0.0 mm 0.00 in0.0 mm
03:54 AM 42.1°F5.6°C 40.5°F4.7°C 94% 3.0 mph SE4.8 kmh SE 5.0 mph8.0 kmh 30.28 in1025.4 mb 0.00 in0.0 mm 0.00 in0.0 mm 0.00 in0.0 mm
03:59 AM 42.1°F5.6°C 40.8°F4.9°C 95% 4.0 mph SE6.4 kmh SE 5.0 mph8.0 kmh 30.28 in1025.4 mb 0.00 in0.0 mm 0.00 in0.0 mm 0.00 in0.0 mm
04:04 AM 42.1°F5.6°C 40.8°F4.9°C 95% 3.0 mph E4.8 kmh E 6.0 mph9.7 kmh 30.28 in1025.4 mb 0.00 in0.0 mm 0.00 in0.0 mm 0.00 in0.0 mm
04:09 AM 42.1°F5.6°C 40.8°F4.9°C 95% 2.0 mph ESE3.2 kmh ESE 4.0 mph6.4 kmh 30.28 in1025.4 mb 0.00 in0.0 mm 0.00 in0.0 mm 0.00 in0.0 mm
04:14 AM 42.1°F5.6°C 40.8°F4.9°C 95% 3.0 mph ESE4.8 kmh ESE 7.0 mph11.3 kmh 30.28 in1025.4 mb 0.00 in0.0 mm 0.00 in0.0 mm 0.00 in0.0 mm
04:19 AM 41.9°F5.5°C 40.6°F4.8°C 95% 4.0 mph ESE6.4 kmh ESE 7.0 mph11.3 kmh 30.28 in1025.4 mb 0.00 in0.0 mm 0.00 in0.0 mm 0.00 in0.0 mm
04:24 AM 41.9°F5.5°C 40.6°F4.8°C 95% 4.0 mph SE6.4 kmh SE 7.0 mph11.3 kmh 30.28 in1025.4 mb 0.00 in0.0 mm 0.00 in0.0 mm 0.00 in0.0 mm
04:29 AM 41.7°F5.4°C 40.4°F4.7°C 95% 6.0 mph ESE9.7 kmh ESE 9.0 mph14.5 kmh 30.28 in1025.4 mb 0.00 in0.0 mm 0.00 in0.0 mm 0.00 in0.0 mm
04:34 AM 41.7°F5.4°C 40.4°F4.7°C 95% 4.0 mph SE6.4 kmh SE 6.0 mph9.7 kmh 30.27 in1025.1 mb 0.00 in0.0 mm 0.00 in0.0 mm 0.00 in0.0 mm
04:39 AM 41.7°F5.4°C 40.4°F4.7°C 95% 5.0 mph SE8.0 kmh SE 7.0 mph11.3 kmh 30.27 in1025.1 mb 0.00 in0.0 mm 0.00 in0.0 mm 0.00 in0.0 mm
04:44 AM 41.7°F5.4°C 40.4°F4.7°C 95% 6.0 mph ESE9.7 kmh ESE 8.0 mph12.9 kmh 30.27 in1025.1 mb 0.00 in0.0 mm 0.00 in0.0 mm 0.00 in0.0 mm
04:49 AM 41.5°F5.3°C 40.2°F4.6°C 95% 3.0 mph ESE4.8 kmh ESE 6.0 mph9.7 kmh 30.27 in1025.1 mb 0.00 in0.0 mm 0.00 in0.0 mm 0.00 in0.0 mm
04:54 AM 41.5°F5.3°C 40.2°F4.6°C 95% 5.0 mph SE8.0 kmh SE 8.0 mph12.9 kmh 30.27 in1025.1 mb 0.00 in0.0 mm 0.00 in0.0 mm 0.00 in0.0 mm
04:59 AM 41.4°F5.2°C 40.0°F4.4°C 95% 5.0 mph ESE8.0 kmh ESE 8.0 mph12.9 kmh 30.27 in1025.1 mb 0.00 in0.0 mm 0.00 in0.0 mm 0.00 in0.0 mm
05:04 AM 41.4°F5.2°C 40.0°F4.4°C 95% 3.0 mph SE4.8 kmh SE 5.0 mph8.0 kmh 30.27 in1025.1 mb 0.00 in0.0 mm 0.00 in0.0 mm 0.00 in0.0 mm
05:09 AM 41.4°F5.2°C 40.3°F4.6°C 96% 5.0 mph ESE8.0 kmh ESE 7.0 mph11.3 kmh 30.27 in1025.1 mb 0.00 in0.0 mm 0.00 in0.0 mm 0.00 in0.0 mm
05:14 AM 41.2°F5.1°C 40.1°F4.5°C 96% 4.0 mph SE6.4 kmh SE 8.0 mph12.9 kmh 30.27 in1025.1 mb 0.00 in0.0 mm 0.00 in0.0 mm 0.00 in0.0 mm
05:19 AM 41.2°F5.1°C 40.1°F4.5°C 96% 6.0 mph SE9.7 kmh SE 8.0 mph12.9 kmh 30.27 in1025.1 mb 0.00 in0.0 mm 0.00 in0.0 mm 0.00 in0.0 mm
05:24 AM 41.0°F5.0°C 39.9°F4.4°C 96% 6.0 mph ESE9.7 kmh ESE 9.0 mph14.5 kmh 30.27 in1025.1 mb 0.00 in0.0 mm 0.00 in0.0 mm 0.00 in0.0 mm
05:29 AM 40.8°F4.9°C 39.8°F4.3°C 96% 4.0 mph ESE6.4 kmh ESE 7.0 mph11.3 kmh 30.26 in1024.7 mb 0.00 in0.0 mm 0.00 in0.0 mm 0.00 in0.0 mm
05:34 AM 40.8°F4.9°C 39.8°F4.3°C 96% 3.0 mph ESE4.8 kmh ESE 7.0 mph11.3 kmh 30.26 in1024.7 mb 0.00 in0.0 mm 0.00 in0.0 mm 0.00 in0.0 mm
05:39 AM 40.8°F4.9°C 39.8°F4.3°C 96% 4.0 mph E6.4 kmh E 7.0 mph11.3 kmh 30.26 in1024.7 mb 0.00 in0.0 mm 0.00 in0.0 mm 0.00 in0.0 mm
05:44 AM 40.8°F4.9°C 39.8°F4.3°C 96% 6.0 mph ESE9.7 kmh ESE 9.0 mph14.5 kmh 30.26 in1024.7 mb 0.00 in0.0 mm 0.00 in0.0 mm 0.00 in0.0 mm
05:49 AM 40.8°F4.9°C 39.8°F4.3°C 96% 5.0 mph ESE8.0 kmh ESE 6.0 mph9.7 kmh 30.26 in1024.7 mb 0.00 in0.0 mm 0.00 in0.0 mm 0.00 in0.0 mm
05:54 AM 40.8°F4.9°C 39.8°F4.3°C 96% 6.0 mph ESE9.7 kmh ESE 10.0 mph16.1 kmh 30.26 in1024.7 mb 0.00 in0.0 mm 0.00 in0.0 mm 0.00 in0.0 mm
05:59 AM 40.8°F4.9°C 39.8°F4.3°C 96% 8.0 mph ESE12.9 kmh ESE 11.0 mph17.7 kmh 30.26 in1024.7 mb 0.00 in0.0 mm 0.00 in0.0 mm 0.00 in0.0 mm
06:04 AM 40.6°F4.8°C 39.6°F4.2°C 96% 6.0 mph SE9.7 kmh SE 9.0 mph14.5 kmh 30.26 in1024.7 mb 0.00 in0.0 mm 0.00 in0.0 mm 0.00 in0.0 mm
06:09 AM 40.6°F4.8°C 39.6°F4.2°C 96% 7.0 mph ESE11.3 kmh ESE 10.0 mph16.1 kmh 30.26 in1024.7 mb 0.00 in0.0 mm 0.00 in0.0 mm 0.00 in0.0 mm
06:14 AM 40.6°F4.8°C 39.6°F4.2°C 96% 6.0 mph SE9.7 kmh SE 8.0 mph12.9 kmh 30.26 in1024.7 mb 0.00 in0.0 mm 0.00 in0.0 mm 0.00 in0.0 mm
06:19 AM 40.6°F4.8°C 39.6°F4.2°C 96% 5.0 mph ESE8.0 kmh ESE 9.0 mph14.5 kmh 30.26 in1024.7 mb 0.00 in0.0 mm 0.00 in0.0 mm 0.00 in0.0 mm
06:24 AM 40.6°F4.8°C 39.6°F4.2°C 96% 5.0 mph E8.0 kmh E 8.0 mph12.9 kmh 30.26 in1024.7 mb 0.00 in0.0 mm 0.00 in0.0 mm 0.00 in0.0 mm
06:29 AM 40.5°F4.7°C 39.4°F4.1°C 96% 6.0 mph ESE9.7 kmh ESE 10.0 mph16.1 kmh 30.26 in1024.7 mb 0.00 in0.0 mm 0.00 in0.0 mm 0.00 in0.0 mm
06:34 AM 40.5°F4.7°C 39.4°F4.1°C 96% 9.0 mph SE14.5 kmh SE 13.0 mph20.9 kmh 30.26 in1024.7 mb 0.00 in0.0 mm 0.00 in0.0 mm 0.00 in0.0 mm
06:39 AM 40.3°F4.6°C 39.2°F4.0°C 96% 5.0 mph ESE8.0 kmh ESE 8.0 mph12.9 kmh 30.26 in1024.7 mb 0.00 in0.0 mm 0.00 in0.0 mm 0.00 in0.0 mm
06:44 AM 40.3°F4.6°C 39.2°F4.0°C 96% 9.0 mph ESE14.5 kmh ESE 11.0 mph17.7 kmh 30.26 in1024.7 mb 0.00 in0.0 mm 0.00 in0.0 mm 0.00 in0.0 mm
06:49 AM 40.3°F4.6°C 39.2°F4.0°C 96% 7.0 mph ESE11.3 kmh ESE 9.0 mph14.5 kmh 30.26 in1024.7 mb 0.00 in0.0 mm 0.00 in0.0 mm 0.00 in0.0 mm
06:54 AM 40.3°F4.6°C 39.2°F4.0°C 96% 6.0 mph ESE9.7 kmh ESE 8.0 mph12.9 kmh 30.26 in1024.7 mb 0.00 in0.0 mm 0.00 in0.0 mm 0.00 in0.0 mm
06:59 AM 40.3°F4.6°C 39.2°F4.0°C 96% 5.0 mph ESE8.0 kmh ESE 8.0 mph12.9 kmh 30.26 in1024.7 mb 0.00 in0.0 mm 0.00 in0.0 mm 0.00 in0.0 mm
07:04 AM 40.3°F4.6°C 39.2°F4.0°C 96% 6.0 mph SE9.7 kmh SE 11.0 mph17.7 kmh 30.26 in1024.7 mb 0.00 in0.0 mm 0.00 in0.0 mm 0.00 in0.0 mm
07:09 AM 40.3°F4.6°C 39.2°F4.0°C 96% 6.0 mph ESE9.7 kmh ESE 12.0 mph19.3 kmh 30.26 in1024.7 mb 0.00 in0.0 mm 0.00 in0.0 mm 0.00 in0.0 mm
07:14 AM 40.1°F4.5°C 39.1°F3.9°C 96% 5.0 mph ESE8.0 kmh ESE 10.0 mph16.1 kmh 30.26 in1024.7 mb 0.00 in0.0 mm 0.00 in0.0 mm 0.00 in0.0 mm
07:19 AM 39.9°F4.4°C 38.9°F3.8°C 96% 9.0 mph ESE14.5 kmh ESE 11.0 mph17.7 kmh 30.26 in1024.7 mb 0.00 in0.0 mm 0.00 in0.0 mm 0.00 in0.0 mm
07:24 AM 39.9°F4.4°C 38.9°F3.8°C 96% 8.0 mph ESE12.9 kmh ESE 11.0 mph17.7 kmh 30.26 in1024.7 mb 0.00 in0.0 mm 0.00 in0.0 mm 0.00 in0.0 mm
07:29 AM 39.9°F4.4°C 38.9°F3.8°C 96% 8.0 mph ESE12.9 kmh ESE 11.0 mph17.7 kmh 30.26 in1024.7 mb 0.00 in0.0 mm 0.00 in0.0 mm 0.00 in0.0 mm
07:34 AM 39.9°F4.4°C 38.9°F3.8°C 96% 9.0 mph SE14.5 kmh SE 15.0 mph24.1 kmh 30.26 in1024.7 mb 0.00 in0.0 mm 0.00 in0.0 mm 0.00 in0.0 mm
07:39 AM 39.6°F4.2°C 38.5°F3.6°C 96% 7.0 mph SE11.3 kmh SE 11.0 mph17.7 kmh 30.26 in1024.7 mb 0.00 in0.0 mm 0.00 in0.0 mm 0.00 in0.0 mm
07:44 AM 39.6°F4.2°C 38.5°F3.6°C 96% 7.0 mph ESE11.3 kmh ESE 11.0 mph17.7 kmh 30.25 in1024.4 mb 0.00 in0.0 mm 0.00 in0.0 mm 0.00 in0.0 mm
07:49 AM 39.6°F4.2°C 38.5°F3.6°C 96% 6.0 mph ESE9.7 kmh ESE 8.0 mph12.9 kmh 30.26 in1024.7 mb 0.00 in0.0 mm 0.00 in0.0 mm 0.00 in0.0 mm
07:54 AM 39.4°F4.1°C 38.3°F3.5°C 96% 6.0 mph ESE9.7 kmh ESE 9.0 mph14.5 kmh 30.25 in1024.4 mb 0.00 in0.0 mm 0.00 in0.0 mm 0.00 in0.0 mm
07:59 AM 39.4°F4.1°C 38.3°F3.5°C 96% 6.0 mph ESE9.7 kmh ESE 8.0 mph12.9 kmh 30.26 in1024.7 mb 0.00 in0.0 mm 0.00 in0.0 mm 0.00 in0.0 mm
08:04 AM 39.4°F4.1°C 38.3°F3.5°C 96% 6.0 mph ESE9.7 kmh ESE 9.0 mph14.5 kmh 30.25 in1024.4 mb 0.00 in0.0 mm 0.00 in0.0 mm 0.00 in0.0 mm
08:09 AM 39.4°F4.1°C 38.3°F3.5°C 96% 6.0 mph ESE9.7 kmh ESE 9.0 mph14.5 kmh 30.25 in1024.4 mb 0.00 in0.0 mm 0.00 in0.0 mm 0.00 in0.0 mm
08:14 AM 39.4°F4.1°C 38.3°F3.5°C 96% 4.0 mph SE6.4 kmh SE 7.0 mph11.3 kmh 30.25 in1024.4 mb 0.00 in0.0 mm 0.00 in0.0 mm 0.00 in0.0 mm
08:19 AM 39.2°F4.0°C 38.2°F3.4°C 96% 5.0 mph ESE8.0 kmh ESE 7.0 mph11.3 kmh 30.25 in1024.4 mb 0.00 in0.0 mm 0.00 in0.0 mm 0.00 in0.0 mm
08:24 AM 39.0°F3.9°C 38.0°F3.3°C 96% 6.0 mph SE9.7 kmh SE 10.0 mph16.1 kmh 30.25 in1024.4 mb 0.00 in0.0 mm 0.00 in0.0 mm 0.00 in0.0 mm
08:29 AM 39.0°F3.9°C 38.0°F3.3°C 96% 4.0 mph SE6.4 kmh SE 7.0 mph11.3 kmh 30.26 in1024.7 mb 0.00 in0.0 mm 0.00 in0.0 mm 0.00 in0.0 mm
08:34 AM 39.0°F3.9°C 38.0°F3.3°C 96% 5.0 mph SE8.0 kmh SE 8.0 mph12.9 kmh 30.26 in1024.7 mb 0.00 in0.0 mm 0.00 in0.0 mm 0.00 in0.0 mm
08:39 AM 38.8°F3.8°C 37.8°F3.2°C 96% 4.0 mph SE6.4 kmh SE 7.0 mph11.3 kmh 30.26 in1024.7 mb 0.00 in0.0 mm 0.00 in0.0 mm 0.00 in0.0 mm
08:44 AM 38.7°F3.7°C 37.9°F3.3°C 97% 3.0 mph ESE4.8 kmh ESE 4.0 mph6.4 kmh 30.25 in1024.4 mb 0.00 in0.0 mm 0.00 in0.0 mm 0.00 in0.0 mm
08:49 AM 38.7°F3.7°C 37.6°F3.1°C 96% 6.0 mph SE9.7 kmh SE 8.0 mph12.9 kmh 30.25 in1024.4 mb 0.00 in0.0 mm 0.00 in0.0 mm 0.00 in0.0 mm
08:54 AM 38.7°F3.7°C 37.9°F3.3°C 97% 5.0 mph ESE8.0 kmh ESE 7.0 mph11.3 kmh 30.26 in1024.7 mb 0.00 in0.0 mm 0.00 in0.0 mm 0.00 in0.0 mm
08:59 AM 38.8°F3.8°C 38.1°F3.4°C 97% 7.0 mph SE11.3 kmh SE 10.0 mph16.1 kmh 30.26 in1024.7 mb 0.00 in0.0 mm 0.00 in0.0 mm 0.00 in0.0 mm
09:04 AM 38.5°F3.6°C 37.7°F3.2°C 97% 4.0 mph ESE6.4 kmh ESE 8.0 mph12.9 kmh 30.26 in1024.7 mb 0.00 in0.0 mm 0.00 in0.0 mm 0.00 in0.0 mm
09:09 AM 38.3°F3.5°C 37.5°F3.1°C 97% 5.0 mph SE8.0 kmh SE 8.0 mph12.9 kmh 30.26 in1024.7 mb 0.00 in0.0 mm 0.00 in0.0 mm 0.00 in0.0 mm
09:14 AM 38.3°F3.5°C 37.5°F3.1°C 97% 6.0 mph ESE9.7 kmh ESE 9.0 mph14.5 kmh 30.26 in1024.7 mb 0.00 in0.0 mm 0.00 in0.0 mm 0.00 in0.0 mm
09:19 AM 38.1°F3.4°C 37.3°F2.9°C 97% 7.0 mph ESE11.3 kmh ESE 11.0 mph17.7 kmh 30.26 in1024.7 mb 0.00 in0.0 mm 0.00 in0.0 mm 0.00 in0.0 mm
09:24 AM 38.1°F3.4°C 37.3°F2.9°C 97% 6.0 mph ESE9.7 kmh ESE 9.0 mph14.5 kmh 30.26 in1024.7 mb 0.00 in0.0 mm 0.00 in0.0 mm 0.00 in0.0 mm
09:29 AM 38.1°F3.4°C 37.3°F2.9°C 97% 5.0 mph ESE8.0 kmh ESE 9.0 mph14.5 kmh 30.26 in1024.7 mb 0.00 in0.0 mm 0.00 in0.0 mm 0.00 in0.0 mm
09:34 AM 38.5°F3.6°C 37.7°F3.2°C 97% 5.0 mph E8.0 kmh E 7.0 mph11.3 kmh 30.26 in1024.7 mb 0.00 in0.0 mm 0.00 in0.0 mm 0.00 in0.0 mm
09:39 AM 38.5°F3.6°C 37.7°F3.2°C 97% 7.0 mph ESE11.3 kmh ESE 9.0 mph14.5 kmh 30.26 in1024.7 mb 0.00 in0.0 mm 0.00 in0.0 mm 0.00 in0.0 mm
09:44 AM 38.7°F3.7°C 37.9°F3.3°C 97% 4.0 mph ESE6.4 kmh ESE 7.0 mph11.3 kmh 30.26 in1024.7 mb 0.00 in0.0 mm 0.00 in0.0 mm 0.00 in0.0 mm
09:49 AM 38.7°F3.7°C 37.9°F3.3°C 97% 6.0 mph ESE9.7 kmh ESE 8.0 mph12.9 kmh 30.26 in1024.7 mb 0.00 in0.0 mm 0.00 in0.0 mm 0.00 in0.0 mm
09:54 AM 38.8°F3.8°C 38.1°F3.4°C 97% 5.0 mph ESE8.0 kmh ESE 7.0 mph11.3 kmh 30.26 in1024.7 mb 0.00 in0.0 mm 0.00 in0.0 mm 0.00 in0.0 mm
09:59 AM 39.0°F3.9°C 38.2°F3.4°C 97% 6.0 mph ESE9.7 kmh ESE 8.0 mph12.9 kmh 30.26 in1024.7 mb 0.00 in0.0 mm 0.00 in0.0 mm 0.00 in0.0 mm
10:03 AM 39.0°F3.9°C 38.2°F3.4°C 97% 4.0 mph SE6.4 kmh SE 7.0 mph11.3 kmh 30.26 in1024.7 mb 0.00 in0.0 mm 0.00 in0.0 mm 0.00 in0.0 mm
10:09 AM 39.4°F4.1°C 38.6°F3.7°C 97% 7.0 mph SE11.3 kmh SE 10.0 mph16.1 kmh 30.26 in1024.7 mb 0.00 in0.0 mm 0.00 in0.0 mm 0.00 in0.0 mm
10:14 AM 39.4°F4.1°C 38.6°F3.7°C 97% 5.0 mph ESE8.0 kmh ESE 6.0 mph9.7 kmh 30.26 in1024.7 mb 0.00 in0.0 mm 0.00 in0.0 mm 0.00 in0.0 mm
10:19 AM 39.4°F4.1°C 38.6°F3.7°C 97% 6.0 mph ESE9.7 kmh ESE 8.0 mph12.9 kmh 30.26 in1024.7 mb 0.00 in0.0 mm 0.00 in0.0 mm 0.00 in0.0 mm
10:24 AM 39.6°F4.2°C 38.8°F3.8°C 97% 6.0 mph ESE9.7 kmh ESE 8.0 mph12.9 kmh 30.26 in1024.7 mb 0.00 in0.0 mm 0.00 in0.0 mm 0.00 in0.0 mm
10:29 AM 39.7°F4.3°C 39.0°F3.9°C 97% 7.0 mph ESE11.3 kmh ESE 9.0 mph14.5 kmh 30.27 in1025.1 mb 0.00 in0.0 mm 0.00 in0.0 mm 0.00 in0.0 mm
10:34 AM 39.9°F4.4°C 39.1°F3.9°C 97% 4.0 mph ESE6.4 kmh ESE 7.0 mph11.3 kmh 30.27 in1025.1 mb 0.00 in0.0 mm 0.00 in0.0 mm 0.00 in0.0 mm
10:39 AM 39.9°F4.4°C 39.1°F3.9°C 97% 7.0 mph ESE11.3 kmh ESE 10.0 mph16.1 kmh 30.27 in1025.1 mb 0.00 in0.0 mm 0.00 in0.0 mm 0.00 in0.0 mm
10:44 AM 40.1°F4.5°C 39.3°F4.1°C 97% 6.0 mph ESE9.7 kmh ESE 8.0 mph12.9 kmh 30.27 in1025.1 mb 0.00 in0.0 mm 0.00 in0.0 mm 0.00 in0.0 mm
10:49 AM 40.3°F4.6°C 39.2°F4.0°C 96% 7.0 mph ESE11.3 kmh ESE 10.0 mph16.1 kmh 30.27 in1025.1 mb 0.00 in0.0 mm 0.00 in0.0 mm 0.00 in0.0 mm
10:54 AM 40.3°F4.6°C 39.2°F4.0°C 96% 8.0 mph ESE12.9 kmh ESE 11.0 mph17.7 kmh 30.27 in1025.1 mb 0.00 in0.0 mm 0.00 in0.0 mm 0.00 in0.0 mm
10:59 AM 40.3°F4.6°C 39.2°F4.0°C 96% 4.0 mph ESE6.4 kmh ESE 7.0 mph11.3 kmh 30.27 in1025.1 mb 0.00 in0.0 mm 0.00 in0.0 mm 0.00 in0.0 mm
11:04 AM 40.5°F4.7°C 39.4°F4.1°C 96% 5.0 mph ESE8.0 kmh ESE 8.0 mph12.9 kmh 30.27 in1025.1 mb 0.00 in0.0 mm 0.00 in0.0 mm 0.00 in0.0 mm
11:09 AM 40.5°F4.7°C 39.4°F4.1°C 96% 6.0 mph ESE9.7 kmh ESE 9.0 mph14.5 kmh 30.27 in1025.1 mb 0.00 in0.0 mm 0.00 in0.0 mm 0.00 in0.0 mm
11:14 AM 40.5°F4.7°C 39.4°F4.1°C 96% 6.0 mph ESE9.7 kmh ESE 10.0 mph16.1 kmh 30.27 in1025.1 mb 0.00 in0.0 mm 0.00 in0.0 mm 0.00 in0.0 mm
11:19 AM 40.5°F4.7°C 39.4°F4.1°C 96% 7.0 mph ESE11.3 kmh ESE 11.0 mph17.7 kmh 30.27 in1025.1 mb 0.00 in0.0 mm 0.00 in0.0 mm 0.00 in0.0 mm
11:24 AM 40.5°F4.7°C 39.4°F4.1°C 96% 5.0 mph ESE8.0 kmh ESE 7.0 mph11.3 kmh 30.27 in1025.1 mb 0.00 in0.0 mm 0.00 in0.0 mm 0.00 in0.0 mm
11:29 AM 40.5°F4.7°C 39.4°F4.1°C 96% 8.0 mph ESE12.9 kmh ESE 12.0 mph19.3 kmh 30.27 in1025.1 mb 0.00 in0.0 mm 0.00 in0.0 mm 0.00 in0.0 mm
11:34 AM 40.5°F4.7°C 39.1°F3.9°C 95% 6.0 mph ESE9.7 kmh ESE 9.0 mph14.5 kmh 30.27 in1025.1 mb 0.00 in0.0 mm 0.00 in0.0 mm 0.00 in0.0 mm
11:39 AM 40.6°F4.8°C 39.3°F4.1°C 95% 7.0 mph SE11.3 kmh SE 10.0 mph16.1 kmh 30.27 in1025.1 mb 0.00 in0.0 mm 0.00 in0.0 mm 0.00 in0.0 mm
11:44 AM 40.6°F4.8°C 39.3°F4.1°C 95% 5.0 mph ESE8.0 kmh ESE 9.0 mph14.5 kmh 30.27 in1025.1 mb 0.00 in0.0 mm 0.00 in0.0 mm 0.00 in0.0 mm
11:49 AM 40.6°F4.8°C 39.3°F4.1°C 95% 3.0 mph ESE4.8 kmh ESE 4.0 mph6.4 kmh 30.27 in1025.1 mb 0.00 in0.0 mm 0.00 in0.0 mm 0.00 in0.0 mm
11:54 AM 40.6°F4.8°C 39.3°F4.1°C 95% 8.0 mph ESE12.9 kmh ESE 11.0 mph17.7 kmh 30.27 in1025.1 mb 0.00 in0.0 mm 0.00 in0.0 mm 0.00 in0.0 mm
11:59 AM 40.6°F4.8°C 39.3°F4.1°C 95% 4.0 mph SE6.4 kmh SE 7.0 mph11.3 kmh 30.26 in1024.7 mb 0.00 in0.0 mm 0.00 in0.0 mm 0.00 in0.0 mm
12:04 PM 40.8°F4.9°C 39.2°F4.0°C 94% 7.0 mph ESE11.3 kmh ESE 9.0 mph14.5 kmh 30.26 in1024.7 mb 0.00 in0.0 mm 0.00 in0.0 mm 0.00 in0.0 mm
12:09 PM 41.0°F5.0°C 39.4°F4.1°C 94% 6.0 mph ESE9.7 kmh ESE 8.0 mph12.9 kmh 30.26 in1024.7 mb 0.00 in0.0 mm 0.00 in0.0 mm 0.00 in0.0 mm
12:14 PM 41.2°F5.1°C 39.6°F4.2°C 94% 5.0 mph SE8.0 kmh SE 7.0 mph11.3 kmh 30.26 in1024.7 mb 0.00 in0.0 mm 0.00 in0.0 mm 0.00 in0.0 mm
12:19 PM 41.4°F5.2°C 39.8°F4.3°C 94% 4.0 mph SE6.4 kmh SE 7.0 mph11.3 kmh 30.26 in1024.7 mb 0.00 in0.0 mm 0.00 in0.0 mm 0.00 in0.0 mm
12:24 PM 41.4°F5.2°C 39.5°F4.2°C 93% 8.0 mph SE12.9 kmh SE 11.0 mph17.7 kmh 30.26 in1024.7 mb 0.00 in0.0 mm 0.00 in0.0 mm 0.00 in0.0 mm
12:29 PM 41.4°F5.2°C 39.5°F4.2°C 93% 5.0 mph SE8.0 kmh SE 9.0 mph14.5 kmh 30.25 in1024.4 mb 0.00 in0.0 mm 0.00 in0.0 mm 0.00 in0.0 mm
12:34 PM 41.7°F5.4°C 39.8°F4.3°C 93% 5.0 mph SE8.0 kmh SE 8.0 mph12.9 kmh 30.25 in1024.4 mb 0.00 in0.0 mm 0.00 in0.0 mm 0.00 in0.0 mm
12:39 PM 41.5°F5.3°C 39.4°F4.1°C 92% 7.0 mph ESE11.3 kmh ESE 10.0 mph16.1 kmh 30.25 in1024.4 mb 0.00 in0.0 mm 0.00 in0.0 mm 0.00 in0.0 mm
12:44 PM 41.7°F5.4°C 39.6°F4.2°C 92% 7.0 mph SE11.3 kmh SE 10.0 mph16.1 kmh 30.25 in1024.4 mb 0.00 in0.0 mm 0.00 in0.0 mm 0.00 in0.0 mm
12:49 PM 41.9°F5.5°C 39.8°F4.3°C 92% 5.0 mph ESE8.0 kmh ESE 9.0 mph14.5 kmh 30.25 in1024.4 mb 0.00 in0.0 mm 0.00 in0.0 mm 0.00 in0.0 mm
12:54 PM 41.9°F5.5°C 39.5°F4.2°C 91% 7.0 mph ESE11.3 kmh ESE 11.0 mph17.7 kmh 30.24 in1024.0 mb 0.00 in0.0 mm 0.00 in0.0 mm 0.00 in0.0 mm
12:59 PM 42.1°F5.6°C 39.6°F4.2°C 91% 7.0 mph ESE11.3 kmh ESE 10.0 mph16.1 kmh 30.24 in1024.0 mb 0.00 in0.0 mm 0.00 in0.0 mm 0.00 in0.0 mm
01:04 PM 42.1°F5.6°C 39.6°F4.2°C 91% 7.0 mph ESE11.3 kmh ESE 10.0 mph16.1 kmh 30.24 in1024.0 mb 0.00 in0.0 mm 0.00 in0.0 mm 0.00 in0.0 mm
01:09 PM 42.3°F5.7°C 39.5°F4.2°C 90% 5.0 mph ESE8.0 kmh ESE 8.0 mph12.9 kmh 30.24 in1024.0 mb 0.00 in0.0 mm 0.00 in0.0 mm 0.00 in0.0 mm
01:14 PM 42.3°F5.7°C 39.5°F4.2°C 90% 7.0 mph ESE11.3 kmh ESE 11.0 mph17.7 kmh 30.24 in1024.0 mb 0.00 in0.0 mm 0.00 in0.0 mm 0.00 in0.0 mm
01:19 PM 42.3°F5.7°C 39.5°F4.2°C 90% 6.0 mph SE9.7 kmh SE 9.0 mph14.5 kmh 30.24 in1024.0 mb 0.00 in0.0 mm 0.00 in0.0 mm 0.00 in0.0 mm
01:24 PM 42.4°F5.8°C 39.4°F4.1°C 89% 7.0 mph SE11.3 kmh SE 10.0 mph16.1 kmh 30.23 in1023.7 mb 0.00 in0.0 mm 0.00 in0.0 mm 0.00 in0.0 mm
01:29 PM 42.4°F5.8°C 39.4°F4.1°C 89% 6.0 mph ESE9.7 kmh ESE 7.0 mph11.3 kmh 30.23 in1023.7 mb 0.00 in0.0 mm 0.00 in0.0 mm 0.00 in0.0 mm
01:34 PM 42.4°F5.8°C 39.4°F4.1°C 89% 7.0 mph ESE11.3 kmh ESE 9.0 mph14.5 kmh 30.23 in1023.7 mb 0.00 in0.0 mm 0.00 in0.0 mm 0.00 in0.0 mm
01:39 PM 42.4°F5.8°C 39.4°F4.1°C 89% 7.0 mph ESE11.3 kmh ESE 11.0 mph17.7 kmh 30.22 in1023.4 mb 0.00 in0.0 mm 0.00 in0.0 mm 0.00 in0.0 mm
01:44 PM 42.6°F5.9°C 39.3°F4.1°C 88% 7.0 mph ESE11.3 kmh ESE 9.0 mph14.5 kmh 30.22 in1023.4 mb 0.00 in0.0 mm 0.00 in0.0 mm 0.00 in0.0 mm
01:49 PM 42.6°F5.9°C 39.3°F4.1°C 88% 9.0 mph ESE14.5 kmh ESE 13.0 mph20.9 kmh 30.22 in1023.4 mb 0.00 in0.0 mm 0.00 in0.0 mm 0.00 in0.0 mm
01:54 PM 42.6°F5.9°C 39.3°F4.1°C 88% 8.0 mph ESE12.9 kmh ESE 11.0 mph17.7 kmh 30.22 in1023.4 mb 0.00 in0.0 mm 0.00 in0.0 mm 0.00 in0.0 mm
01:59 PM 42.6°F5.9°C 39.3°F4.1°C 88% 5.0 mph SE8.0 kmh SE 8.0 mph12.9 kmh 30.22 in1023.4 mb 0.00 in0.0 mm 0.00 in0.0 mm 0.00 in0.0 mm
02:04 PM 42.6°F5.9°C 39.3°F4.1°C 88% 6.0 mph ESE9.7 kmh ESE 9.0 mph14.5 kmh 30.21 in1023.0 mb 0.00 in0.0 mm 0.00 in0.0 mm 0.00 in0.0 mm
02:09 PM 42.8°F6.0°C 39.8°F4.3°C 89% 7.0 mph ESE11.3 kmh ESE 10.0 mph16.1 kmh 30.21 in1023.0 mb 0.00 in0.0 mm 0.00 in0.0 mm 0.00 in0.0 mm
02:14 PM 43.0°F6.1°C 39.7°F4.3°C 88% 5.0 mph SE8.0 kmh SE 9.0 mph14.5 kmh 30.21 in1023.0 mb 0.00 in0.0 mm 0.00 in0.0 mm 0.00 in0.0 mm
02:19 PM 43.2°F6.2°C 39.9°F4.4°C 88% 7.0 mph ESE11.3 kmh ESE 9.0 mph14.5 kmh 30.21 in1023.0 mb 0.00 in0.0 mm 0.00 in0.0 mm 0.00 in0.0 mm
02:24 PM 43.3°F6.3°C 40.0°F4.4°C 88% 7.0 mph E11.3 kmh E 10.0 mph16.1 kmh 30.21 in1023.0 mb 0.00 in0.0 mm 0.00 in0.0 mm 0.00 in0.0 mm
02:29 PM 43.3°F6.3°C 40.0°F4.4°C 88% 7.0 mph SE11.3 kmh SE 10.0 mph16.1 kmh 30.20 in1022.7 mb 0.00 in0.0 mm 0.00 in0.0 mm 0.00 in0.0 mm
02:34 PM 43.5°F6.4°C 40.2°F4.6°C 88% 6.0 mph ESE9.7 kmh ESE 10.0 mph16.1 kmh 30.20 in1022.7 mb 0.00 in0.0 mm 0.00 in0.0 mm 0.00 in0.0 mm
02:39 PM 43.5°F6.4°C 40.2°F4.6°C 88% 7.0 mph ESE11.3 kmh ESE 10.0 mph16.1 kmh 30.20 in1022.7 mb 0.00 in0.0 mm 0.00 in0.0 mm 0.00 in0.0 mm
02:44 PM 43.9°F6.6°C 40.6°F4.8°C 88% 5.0 mph SE8.0 kmh SE 7.0 mph11.3 kmh 30.20 in1022.7 mb 0.00 in0.0 mm 0.00 in0.0 mm 0.00 in0.0 mm
02:49 PM 43.9°F6.6°C 40.3°F4.6°C 87% 7.0 mph ESE11.3 kmh ESE 9.0 mph14.5 kmh 30.19 in1022.4 mb 0.00 in0.0 mm 0.00 in0.0 mm 0.00 in0.0 mm
02:54 PM 43.9°F6.6°C 40.6°F4.8°C 88% 4.0 mph ESE6.4 kmh ESE 6.0 mph9.7 kmh 30.19 in1022.4 mb 0.00 in0.0 mm 0.00 in0.0 mm 0.00 in0.0 mm
02:59 PM 43.9°F6.6°C 40.6°F4.8°C 88% 4.0 mph SE6.4 kmh SE 5.0 mph8.0 kmh 30.19 in1022.4 mb 0.00 in0.0 mm 0.00 in0.0 mm 0.00 in0.0 mm
03:04 PM 43.9°F6.6°C 40.9°F4.9°C 89% 5.0 mph ESE8.0 kmh ESE 8.0 mph12.9 kmh 30.20 in1022.7 mb 0.00 in0.0 mm 0.00 in0.0 mm 0.00 in0.0 mm
03:09 PM 43.5°F6.4°C 40.5°F4.7°C 89% 5.0 mph SE8.0 kmh SE 7.0 mph11.3 kmh 30.19 in1022.4 mb 0.00 in0.0 mm 0.00 in0.0 mm 0.00 in0.0 mm
03:14 PM 43.5°F6.4°C 40.5°F4.7°C 89% 6.0 mph SE9.7 kmh SE 9.0 mph14.5 kmh 30.19 in1022.4 mb 0.00 in0.0 mm 0.00 in0.0 mm 0.00 in0.0 mm
03:19 PM 43.5°F6.4°C 40.5°F4.7°C 89% 5.0 mph SE8.0 kmh SE 9.0 mph14.5 kmh 30.19 in1022.4 mb 0.00 in0.0 mm 0.00 in0.0 mm 0.00 in0.0 mm
03:24 PM 43.5°F6.4°C 40.5°F4.7°C 89% 5.0 mph ESE8.0 kmh ESE 8.0 mph12.9 kmh 30.19 in1022.4 mb 0.00 in0.0 mm 0.00 in0.0 mm 0.00 in0.0 mm
03:29 PM 43.5°F6.4°C 40.5°F4.7°C 89% 3.0 mph SE4.8 kmh SE 5.0 mph8.0 kmh 30.19 in1022.4 mb 0.00 in0.0 mm 0.00 in0.0 mm 0.00 in0.0 mm
03:34 PM 43.5°F6.4°C 40.5°F4.7°C 89% 4.0 mph SE6.4 kmh SE 7.0 mph11.3 kmh 30.19 in1022.4 mb 0.00 in0.0 mm 0.00 in0.0 mm 0.00 in0.0 mm
03:39 PM 43.5°F6.4°C 40.5°F4.7°C 89% 4.0 mph SE6.4 kmh SE 5.0 mph8.0 kmh 30.19 in1022.4 mb 0.00 in0.0 mm 0.00 in0.0 mm 0.00 in0.0 mm
03:44 PM 43.5°F6.4°C 40.5°F4.7°C 89% 6.0 mph E9.7 kmh E 11.0 mph17.7 kmh 30.19 in1022.4 mb 0.00 in0.0 mm 0.00 in0.0 mm 0.00 in0.0 mm
03:49 PM 43.5°F6.4°C 40.5°F4.7°C 89% 5.0 mph ESE8.0 kmh ESE 8.0 mph12.9 kmh 30.19 in1022.4 mb 0.00 in0.0 mm 0.00 in0.0 mm 0.00 in0.0 mm
03:54 PM 43.5°F6.4°C 40.5°F4.7°C 89% 5.0 mph ESE8.0 kmh ESE 9.0 mph14.5 kmh 30.19 in1022.4 mb 0.00 in0.0 mm 0.00 in0.0 mm 0.00 in0.0 mm
03:59 PM 43.3°F6.3°C 40.6°F4.8°C 90% 4.0 mph E6.4 kmh E 7.0 mph11.3 kmh 30.19 in1022.4 mb 0.00 in0.0 mm 0.00 in0.0 mm 0.00 in0.0 mm
04:04 PM 43.3°F6.3°C 40.6°F4.8°C 90% 4.0 mph ESE6.4 kmh ESE 6.0 mph9.7 kmh 30.19 in1022.4 mb 0.00 in0.0 mm 0.00 in0.0 mm 0.00 in0.0 mm
04:09 PM 43.3°F6.3°C 40.6°F4.8°C 90% 5.0 mph SE8.0 kmh SE 8.0 mph12.9 kmh 30.19 in1022.4 mb 0.00 in0.0 mm 0.00 in0.0 mm 0.00 in0.0 mm
04:14 PM 43.5°F6.4°C 40.8°F4.9°C 90% 4.0 mph ESE6.4 kmh ESE 7.0 mph11.3 kmh 30.19 in1022.4 mb 0.00 in0.0 mm 0.00 in0.0 mm 0.00 in0.0 mm
04:19 PM 43.3°F6.3°C 40.6°F4.8°C 90% 5.0 mph SE8.0 kmh SE 8.0 mph12.9 kmh 30.19 in1022.4 mb 0.00 in0.0 mm 0.00 in0.0 mm 0.00 in0.0 mm
04:24 PM 43.3°F6.3°C 40.6°F4.8°C 90% 4.0 mph SE6.4 kmh SE 7.0 mph11.3 kmh 30.19 in1022.4 mb 0.00 in0.0 mm 0.00 in0.0 mm 0.00 in0.0 mm
04:29 PM 43.3°F6.3°C 40.6°F4.8°C 90% 5.0 mph SE8.0 kmh SE 8.0 mph12.9 kmh 30.19 in1022.4 mb 0.00 in0.0 mm 0.00 in0.0 mm 0.00 in0.0 mm
04:34 PM 43.3°F6.3°C 40.6°F4.8°C 90% 4.0 mph E6.4 kmh E 9.0 mph14.5 kmh 30.19 in1022.4 mb 0.00 in0.0 mm 0.00 in0.0 mm 0.00 in0.0 mm
04:39 PM 43.3°F6.3°C 40.6°F4.8°C 90% 4.0 mph E6.4 kmh E 7.0 mph11.3 kmh 30.19 in1022.4 mb 0.00 in0.0 mm 0.00 in0.0 mm 0.00 in0.0 mm
04:44 PM 43.3°F6.3°C 40.6°F4.8°C 90% 3.0 mph E4.8 kmh E 6.0 mph9.7 kmh 30.19 in1022.4 mb 0.00 in0.0 mm 0.00 in0.0 mm 0.00 in0.0 mm
04:49 PM 43.3°F6.3°C 40.6°F4.8°C 90% 4.0 mph E6.4 kmh E 6.0 mph9.7 kmh 30.19 in1022.4 mb 0.00 in0.0 mm 0.00 in0.0 mm 0.00 in0.0 mm
04:54 PM 43.3°F6.3°C 40.6°F4.8°C 90% 3.0 mph SE4.8 kmh SE 5.0 mph8.0 kmh 30.19 in1022.4 mb 0.00 in0.0 mm 0.00 in0.0 mm 0.00 in0.0 mm
04:59 PM 43.3°F6.3°C 40.6°F4.8°C 90% 4.0 mph ESE6.4 kmh ESE 8.0 mph12.9 kmh 30.19 in1022.4 mb 0.00 in0.0 mm 0.00 in0.0 mm 0.00 in0.0 mm
05:04 PM 43.3°F6.3°C 40.6°F4.8°C 90% 4.0 mph E6.4 kmh E 8.0 mph12.9 kmh 30.19 in1022.4 mb 0.00 in0.0 mm 0.00 in0.0 mm 0.00 in0.0 mm
05:09 PM 43.3°F6.3°C 40.6°F4.8°C 90% 5.0 mph E8.0 kmh E 8.0 mph12.9 kmh 30.19 in1022.4 mb 0.00 in0.0 mm 0.00 in0.0 mm 0.00 in0.0 mm
05:14 PM 43.3°F6.3°C 40.6°F4.8°C 90% 3.0 mph E4.8 kmh E 5.0 mph8.0 kmh 30.19 in1022.4 mb 0.00 in0.0 mm 0.00 in0.0 mm 0.00 in0.0 mm
05:19 PM 43.3°F6.3°C 40.3°F4.6°C 89% 5.0 mph ESE8.0 kmh ESE 7.0 mph11.3 kmh 30.19 in1022.4 mb 0.00 in0.0 mm 0.00 in0.0 mm 0.00 in0.0 mm
05:24 PM 43.3°F6.3°C 40.3°F4.6°C 89% 5.0 mph SE8.0 kmh SE 7.0 mph11.3 kmh 30.19 in1022.4 mb 0.00 in0.0 mm 0.00 in0.0 mm 0.00 in0.0 mm
05:29 PM 43.3°F6.3°C 40.0°F4.4°C 88% 4.0 mph ESE6.4 kmh ESE 6.0 mph9.7 kmh 30.19 in1022.4 mb 0.00 in0.0 mm 0.00 in0.0 mm 0.00 in0.0 mm
05:34 PM 43.2°F6.2°C 39.9°F4.4°C 88% 6.0 mph E9.7 kmh E 11.0 mph17.7 kmh 30.19 in1022.4 mb 0.00 in0.0 mm 0.00 in0.0 mm 0.00 in0.0 mm
05:39 PM 43.0°F6.1°C 39.4°F4.1°C 87% 6.0 mph SE9.7 kmh SE 8.0 mph12.9 kmh 30.19 in1022.4 mb 0.00 in0.0 mm 0.00 in0.0 mm 0.00 in0.0 mm
05:44 PM 43.0°F6.1°C 39.1°F3.9°C 86% 6.0 mph ESE9.7 kmh ESE 9.0 mph14.5 kmh 30.19 in1022.4 mb 0.00 in0.0 mm 0.00 in0.0 mm 0.00 in0.0 mm
05:49 PM 42.8°F6.0°C 38.9°F3.8°C 86% 8.0 mph SE12.9 kmh SE 12.0 mph19.3 kmh 30.19 in1022.4 mb 0.00 in0.0 mm 0.00 in0.0 mm 0.00 in0.0 mm
05:54 PM 42.6°F5.9°C 38.4°F3.6°C 85% 8.0 mph SE12.9 kmh SE 17.0 mph27.4 kmh 30.19 in1022.4 mb 0.00 in0.0 mm 0.00 in0.0 mm 0.00 in0.0 mm
05:59 PM 42.4°F5.8°C 38.3°F3.5°C 85% 7.0 mph ESE11.3 kmh ESE 11.0 mph17.7 kmh 30.19 in1022.4 mb 0.00 in0.0 mm 0.00 in0.0 mm 0.00 in0.0 mm
06:04 PM 42.4°F5.8°C 38.0°F3.3°C 84% 7.0 mph ESE11.3 kmh ESE 10.0 mph16.1 kmh 30.19 in1022.4 mb 0.00 in0.0 mm 0.00 in0.0 mm 0.00 in0.0 mm
06:09 PM 42.3°F5.7°C 37.8°F3.2°C 84% 7.0 mph ESE11.3 kmh ESE 10.0 mph16.1 kmh 30.19 in1022.4 mb 0.00 in0.0 mm 0.00 in0.0 mm 0.00 in0.0 mm
06:14 PM 42.3°F5.7°C 37.8°F3.2°C 84% 7.0 mph SE11.3 kmh SE 9.0 mph14.5 kmh 30.19 in1022.4 mb 0.00 in0.0 mm 0.00 in0.0 mm 0.00 in0.0 mm
06:19 PM 42.3°F5.7°C 37.8°F3.2°C 84% 7.0 mph ESE11.3 kmh ESE 10.0 mph16.1 kmh 30.19 in1022.4 mb 0.00 in0.0 mm 0.00 in0.0 mm 0.00 in0.0 mm
06:24 PM 42.1°F5.6°C 37.3°F2.9°C 83% 6.0 mph E9.7 kmh E 9.0 mph14.5 kmh 30.19 in1022.4 mb 0.00 in0.0 mm 0.00 in0.0 mm 0.00 in0.0 mm
06:29 PM 42.1°F5.6°C 37.3°F2.9°C 83% 9.0 mph E14.5 kmh E 13.0 mph20.9 kmh 30.19 in1022.4 mb 0.00 in0.0 mm 0.00 in0.0 mm 0.00 in0.0 mm
06:34 PM 42.1°F5.6°C 37.3°F2.9°C 83% 5.0 mph ESE8.0 kmh ESE 9.0 mph14.5 kmh 30.19 in1022.4 mb 0.00 in0.0 mm 0.00 in0.0 mm 0.00 in0.0 mm
06:39 PM 42.1°F5.6°C 37.3°F2.9°C 83% 7.0 mph E11.3 kmh E 13.0 mph20.9 kmh 30.19 in1022.4 mb 0.00 in0.0 mm 0.00 in0.0 mm 0.00 in0.0 mm
06:44 PM 42.1°F5.6°C 37.0°F2.8°C 82% 9.0 mph SE14.5 kmh SE 14.0 mph22.5 kmh 30.19 in1022.4 mb 0.00 in0.0 mm 0.00 in0.0 mm 0.00 in0.0 mm
06:49 PM 41.7°F5.4°C 36.6°F2.6°C 82% 12.0 mph ESE19.3 kmh ESE 17.0 mph27.4 kmh 30.20 in1022.7 mb 0.00 in0.0 mm 0.00 in0.0 mm 0.00 in0.0 mm
06:54 PM 41.7°F5.4°C 36.3°F2.4°C 81% 9.0 mph ESE14.5 kmh ESE 12.0 mph19.3 kmh 30.20 in1022.7 mb 0.00 in0.0 mm 0.00 in0.0 mm 0.00 in0.0 mm
06:59 PM 41.7°F5.4°C 36.3°F2.4°C 81% 10.0 mph ESE16.1 kmh ESE 14.0 mph22.5 kmh 30.20 in1022.7 mb 0.00 in0.0 mm 0.00 in0.0 mm 0.00 in0.0 mm
07:04 PM 41.5°F5.3°C 36.5°F2.5°C 82% 7.0 mph ESE11.3 kmh ESE 11.0 mph17.7 kmh 30.20 in1022.7 mb 0.00 in0.0 mm 0.00 in0.0 mm 0.00 in0.0 mm
07:09 PM 41.5°F5.3°C 36.5°F2.5°C 82% 8.0 mph ESE12.9 kmh ESE 11.0 mph17.7 kmh 30.20 in1022.7 mb 0.00 in0.0 mm 0.00 in0.0 mm 0.00 in0.0 mm
07:14 PM 41.5°F5.3°C 36.5°F2.5°C 82% 6.0 mph SE9.7 kmh SE 8.0 mph12.9 kmh 30.20 in1022.7 mb 0.00 in0.0 mm 0.00 in0.0 mm 0.00 in0.0 mm
07:19 PM 41.5°F5.3°C 36.8°F2.7°C 83% 6.0 mph SE9.7 kmh SE 8.0 mph12.9 kmh 30.20 in1022.7 mb 0.00 in0.0 mm 0.00 in0.0 mm 0.00 in0.0 mm
07:24 PM 41.5°F5.3°C 36.8°F2.7°C 83% 4.0 mph SE6.4 kmh SE 7.0 mph11.3 kmh 30.20 in1022.7 mb 0.00 in0.0 mm 0.00 in0.0 mm 0.00 in0.0 mm
07:29 PM 41.4°F5.2°C 36.6°F2.6°C 83% 5.0 mph ESE8.0 kmh ESE 7.0 mph11.3 kmh 30.20 in1022.7 mb 0.00 in0.0 mm 0.00 in0.0 mm 0.00 in0.0 mm
07:34 PM 41.4°F5.2°C 36.6°F2.6°C 83% 8.0 mph ESE12.9 kmh ESE 10.0 mph16.1 kmh 30.20 in1022.7 mb 0.00 in0.0 mm 0.00 in0.0 mm 0.00 in0.0 mm
07:39 PM 41.2°F5.1°C 36.4°F2.4°C 83% 5.0 mph ESE8.0 kmh ESE 7.0 mph11.3 kmh 30.19 in1022.4 mb 0.00 in0.0 mm 0.00 in0.0 mm 0.00 in0.0 mm
07:44 PM 41.2°F5.1°C 36.4°F2.4°C 83% 4.0 mph E6.4 kmh E 7.0 mph11.3 kmh 30.19 in1022.4 mb 0.00 in0.0 mm 0.00 in0.0 mm 0.00 in0.0 mm
07:49 PM 41.2°F5.1°C 36.4°F2.4°C 83% 7.0 mph SE11.3 kmh SE 9.0 mph14.5 kmh 30.20 in1022.7 mb 0.00 in0.0 mm 0.00 in0.0 mm 0.00 in0.0 mm
07:54 PM 41.2°F5.1°C 36.4°F2.4°C 83% 5.0 mph SE8.0 kmh SE 8.0 mph12.9 kmh 30.20 in1022.7 mb 0.00 in0.0 mm 0.00 in0.0 mm 0.00 in0.0 mm
07:59 PM 41.2°F5.1°C 36.1°F2.3°C 82% 5.0 mph SE8.0 kmh SE 8.0 mph12.9 kmh 30.20 in1022.7 mb 0.00 in0.0 mm 0.00 in0.0 mm 0.00 in0.0 mm
08:04 PM 41.2°F5.1°C 36.1°F2.3°C 82% 8.0 mph ESE12.9 kmh ESE 12.0 mph19.3 kmh 30.20 in1022.7 mb 0.00 in0.0 mm 0.00 in0.0 mm 0.00 in0.0 mm
08:09 PM 41.0°F5.0°C 35.9°F2.2°C 82% 8.0 mph ESE12.9 kmh ESE 12.0 mph19.3 kmh 30.20 in1022.7 mb 0.00 in0.0 mm 0.00 in0.0 mm 0.00 in0.0 mm
08:14 PM 40.8°F4.9°C 36.1°F2.3°C 83% 4.0 mph SE6.4 kmh SE 8.0 mph12.9 kmh 30.20 in1022.7 mb 0.00 in0.0 mm 0.00 in0.0 mm 0.00 in0.0 mm
08:19 PM 40.5°F4.7°C 36.0°F2.2°C 84% 5.0 mph SE8.0 kmh SE 7.0 mph11.3 kmh 30.20 in1022.7 mb 0.00 in0.0 mm 0.00 in0.0 mm 0.00 in0.0 mm
08:24 PM 40.3°F4.6°C 35.8°F2.1°C 84% 3.0 mph SE4.8 kmh SE 5.0 mph8.0 kmh 30.20 in1022.7 mb 0.00 in0.0 mm 0.00 in0.0 mm 0.00 in0.0 mm
08:29 PM 39.9°F4.4°C 35.8°F2.1°C 85% 4.0 mph SE6.4 kmh SE 6.0 mph9.7 kmh 30.20 in1022.7 mb 0.00 in0.0 mm 0.00 in0.0 mm 0.00 in0.0 mm
08:34 PM 39.7°F4.3°C 35.6°F2.0°C 85% 3.0 mph SE4.8 kmh SE 5.0 mph8.0 kmh 30.20 in1022.7 mb 0.00 in0.0 mm 0.00 in0.0 mm 0.00 in0.0 mm
08:39 PM 39.6°F4.2°C 35.7°F2.1°C 86% 3.0 mph SE4.8 kmh SE 6.0 mph9.7 kmh 30.19 in1022.4 mb 0.00 in0.0 mm 0.00 in0.0 mm 0.00 in0.0 mm
08:44 PM 39.6°F4.2°C 35.7°F2.1°C 86% 2.0 mph ENE3.2 kmh ENE 6.0 mph9.7 kmh 30.20 in1022.7 mb 0.00 in0.0 mm 0.00 in0.0 mm 0.00 in0.0 mm
08:49 PM 39.4°F4.1°C 35.6°F2.0°C 86% 3.0 mph ESE4.8 kmh ESE 5.0 mph8.0 kmh 30.19 in1022.4 mb 0.00 in0.0 mm 0.00 in0.0 mm 0.00 in0.0 mm
08:54 PM 39.2°F4.0°C 35.7°F2.1°C 87% 4.0 mph SE6.4 kmh SE 6.0 mph9.7 kmh 30.20 in1022.7 mb 0.00 in0.0 mm 0.00 in0.0 mm 0.00 in0.0 mm
08:59 PM 39.0°F3.9°C 35.5°F1.9°C 87% 3.0 mph ESE4.8 kmh ESE 6.0 mph9.7 kmh 30.19 in1022.4 mb 0.00 in0.0 mm 0.00 in0.0 mm 0.00 in0.0 mm
09:04 PM 39.0°F3.9°C 35.5°F1.9°C 87% 4.0 mph ESE6.4 kmh ESE 6.0 mph9.7 kmh 30.19 in1022.4 mb 0.00 in0.0 mm 0.00 in0.0 mm 0.00 in0.0 mm
09:09 PM 38.8°F3.8°C 35.3°F1.8°C 87% 3.0 mph SE4.8 kmh SE 4.0 mph6.4 kmh 30.19 in1022.4 mb 0.00 in0.0 mm 0.00 in0.0 mm 0.00 in0.0 mm
09:14 PM 38.8°F3.8°C 35.3°F1.8°C 87% 4.0 mph ESE6.4 kmh ESE 8.0 mph12.9 kmh 30.19 in1022.4 mb 0.00 in0.0 mm 0.00 in0.0 mm 0.00 in0.0 mm
09:19 PM 38.7°F3.7°C 35.1°F1.7°C 87% 2.0 mph ESE3.2 kmh ESE 4.0 mph6.4 kmh 30.19 in1022.4 mb 0.00 in0.0 mm 0.00 in0.0 mm 0.00 in0.0 mm
09:24 PM 38.7°F3.7°C 35.4°F1.9°C 88% 3.0 mph SE4.8 kmh SE 4.0 mph6.4 kmh 30.19 in1022.4 mb 0.00 in0.0 mm 0.00 in0.0 mm 0.00 in0.0 mm
09:29 PM 38.7°F3.7°C 35.4°F1.9°C 88% 3.0 mph E4.8 kmh E 4.0 mph6.4 kmh 30.19 in1022.4 mb 0.00 in0.0 mm 0.00 in0.0 mm 0.00 in0.0 mm
09:34 PM 38.7°F3.7°C 35.4°F1.9°C 88% 2.0 mph ESE3.2 kmh ESE 3.0 mph4.8 kmh 30.19 in1022.4 mb 0.00 in0.0 mm 0.00 in0.0 mm 0.00 in0.0 mm
09:39 PM 38.5°F3.6°C 35.2°F1.8°C 88% 1.0 mph E1.6 kmh E 2.0 mph3.2 kmh 30.19 in1022.4 mb 0.00 in0.0 mm 0.00 in0.0 mm 0.00 in0.0 mm
09:44 PM 38.1°F3.4°C 34.9°F1.6°C 88% 2.0 mph E3.2 kmh E 3.0 mph4.8 kmh 30.19 in1022.4 mb 0.00 in0.0 mm 0.00 in0.0 mm 0.00 in0.0 mm
09:49 PM 38.1°F3.4°C 34.9°F1.6°C 88% 3.0 mph E4.8 kmh E 4.0 mph6.4 kmh 30.19 in1022.4 mb 0.00 in0.0 mm 0.00 in0.0 mm 0.00 in0.0 mm
09:54 PM 37.9°F3.3°C 34.7°F1.5°C 88% 2.0 mph E3.2 kmh E 4.0 mph6.4 kmh 30.19 in1022.4 mb 0.00 in0.0 mm 0.00 in0.0 mm 0.00 in0.0 mm
09:59 PM 37.8°F3.2°C 34.8°F1.6°C 89% 3.0 mph E4.8 kmh E 6.0 mph9.7 kmh 30.19 in1022.4 mb 0.00 in0.0 mm 0.00 in0.0 mm 0.00 in0.0 mm
10:04 PM 37.8°F3.2°C 34.8°F1.6°C 89% 3.0 mph E4.8 kmh E 4.0 mph6.4 kmh 30.19 in1022.4 mb 0.00 in0.0 mm 0.00 in0.0 mm 0.00 in0.0 mm
10:09 PM 37.9°F3.3°C 35.0°F1.7°C 89% 3.0 mph E4.8 kmh E 6.0 mph9.7 kmh 30.19 in1022.4 mb 0.00 in0.0 mm 0.00 in0.0 mm 0.00 in0.0 mm
10:14 PM 37.8°F3.2°C 34.5°F1.4°C 88% 2.0 mph E3.2 kmh E 3.0 mph4.8 kmh 30.19 in1022.4 mb 0.00 in0.0 mm 0.00 in0.0 mm 0.00 in0.0 mm
10:19 PM 37.9°F3.3°C 34.7°F1.5°C 88% 3.0 mph E4.8 kmh E 7.0 mph11.3 kmh 30.19 in1022.4 mb 0.00 in0.0 mm 0.00 in0.0 mm 0.00 in0.0 mm
10:24 PM 37.9°F3.3°C 34.7°F1.5°C 88% 2.0 mph SE3.2 kmh SE 4.0 mph6.4 kmh 30.18 in1022.0 mb 0.00 in0.0 mm 0.00 in0.0 mm 0.00 in0.0 mm
10:29 PM 37.9°F3.3°C 34.7°F1.5°C 88% 4.0 mph ENE6.4 kmh ENE 6.0 mph9.7 kmh 30.18 in1022.0 mb 0.00 in0.0 mm 0.00 in0.0 mm 0.00 in0.0 mm
10:34 PM 38.1°F3.4°C 34.6°F1.4°C 87% 5.0 mph SE8.0 kmh SE 7.0 mph11.3 kmh 30.19 in1022.4 mb 0.00 in0.0 mm 0.00 in0.0 mm 0.00 in0.0 mm
10:39 PM 38.1°F3.4°C 34.6°F1.4°C 87% 4.0 mph E6.4 kmh E 9.0 mph14.5 kmh 30.18 in1022.0 mb 0.00 in0.0 mm 0.00 in0.0 mm 0.00 in0.0 mm
10:44 PM 38.1°F3.4°C 34.6°F1.4°C 87% 2.0 mph ENE3.2 kmh ENE 4.0 mph6.4 kmh 30.18 in1022.0 mb 0.00 in0.0 mm 0.00 in0.0 mm 0.00 in0.0 mm
10:49 PM 37.9°F3.3°C 34.4°F1.3°C 87% 4.0 mph E6.4 kmh E 6.0 mph9.7 kmh 30.18 in1022.0 mb 0.00 in0.0 mm 0.00 in0.0 mm 0.00 in0.0 mm
10:54 PM 37.9°F3.3°C 34.7°F1.5°C 88% 4.0 mph ENE6.4 kmh ENE 7.0 mph11.3 kmh 30.18 in1022.0 mb 0.00 in0.0 mm 0.00 in0.0 mm 0.00 in0.0 mm
10:59 PM 37.9°F3.3°C 34.7°F1.5°C 88% 3.0 mph ESE4.8 kmh ESE 4.0 mph6.4 kmh 30.18 in1022.0 mb 0.00 in0.0 mm 0.00 in0.0 mm 0.00 in0.0 mm
11:04 PM 37.9°F3.3°C 34.7°F1.5°C 88% 3.0 mph E4.8 kmh E 6.0 mph9.7 kmh 30.18 in1022.0 mb 0.00 in0.0 mm 0.00 in0.0 mm 0.00 in0.0 mm
11:09 PM 37.8°F3.2°C 34.2°F1.2°C 87% 6.0 mph E9.7 kmh E 9.0 mph14.5 kmh 30.18 in1022.0 mb 0.00 in0.0 mm 0.00 in0.0 mm 0.00 in0.0 mm
11:14 PM 37.8°F3.2°C 34.5°F1.4°C 88% 3.0 mph ESE4.8 kmh ESE 5.0 mph8.0 kmh 30.18 in1022.0 mb 0.00 in0.0 mm 0.00 in0.0 mm 0.00 in0.0 mm
11:19 PM 37.8°F3.2°C 34.5°F1.4°C 88% 3.0 mph E4.8 kmh E 4.0 mph6.4 kmh 30.18 in1022.0 mb 0.00 in0.0 mm 0.00 in0.0 mm 0.00 in0.0 mm
11:24 PM 37.8°F3.2°C 34.5°F1.4°C 88% 4.0 mph ESE6.4 kmh ESE 6.0 mph9.7 kmh 30.18 in1022.0 mb 0.00 in0.0 mm 0.00 in0.0 mm 0.00 in0.0 mm
11:29 PM 37.8°F3.2°C 34.5°F1.4°C 88% 4.0 mph SE6.4 kmh SE 5.0 mph8.0 kmh 30.18 in1022.0 mb 0.00 in0.0 mm 0.00 in0.0 mm 0.00 in0.0 mm
11:34 PM 37.8°F3.2°C 34.5°F1.4°C 88% 3.0 mph E4.8 kmh E 7.0 mph11.3 kmh 30.18 in1022.0 mb 0.00 in0.0 mm 0.00 in0.0 mm 0.00 in0.0 mm
11:39 PM 37.8°F3.2°C 34.5°F1.4°C 88% 2.0 mph SE3.2 kmh SE 4.0 mph6.4 kmh 30.18 in1022.0 mb 0.00 in0.0 mm 0.00 in0.0 mm 0.00 in0.0 mm
11:44 PM 37.6°F3.1°C 34.1°F1.2°C 87% 5.0 mph E8.0 kmh E 8.0 mph12.9 kmh 30.18 in1022.0 mb 0.00 in0.0 mm 0.00 in0.0 mm 0.00 in0.0 mm
11:49 PM 37.6°F3.1°C 34.1°F1.2°C 87% 4.0 mph ESE6.4 kmh ESE 7.0 mph11.3 kmh 30.18 in1022.0 mb 0.00 in0.0 mm 0.00 in0.0 mm 0.00 in0.0 mm
11:54 PM 37.6°F3.1°C 34.1°F1.2°C 87% 3.0 mph E4.8 kmh E 6.0 mph9.7 kmh 30.18 in1022.0 mb 0.00 in0.0 mm 0.00 in0.0 mm 0.00 in0.0 mm
11:59 PM 37.6°F3.1°C 34.1°F1.2°C 87% 3.0 mph E4.8 kmh E 5.0 mph8.0 kmh 30.18 in1022.0 mb 0.00 in0.0 mm 0.00 in0.0 mm 0.00 in0.0 mm